Time;durP1;ratioP1;P1;durP2;ratioP2;P2;SDS_P1;SDS_P2;PMS_P1;PMS_P2;Temp;Humidity;BMP_temperature;BMP_pressure;BME280_temperature;BME280_humidity;BME280_pressure;Samples;Min_cycle;Max_cycle;Signal;HPM_P1;HPM_P2
2022/12/01 00:00:05;;;;;;;;;;;13.40;91.10;;;;;;4592239;19;19935;-21
2022/12/01 00:05:19;;;;;;;;;;;13.40;91.00;;;;;;4591977;19;20244;-21
2022/12/01 00:10:24;;;;;;;;;;;13.40;90.90;;;;;;4591709;19;19923;-21
2022/12/01 00:15:27;;;;;;;;;;;13.40;90.90;;;;;;4591582;19;20393;-22
2022/12/01 00:16:59;;;;;;;;;;;13.40;90.80;;;;;;4592049;19;19923;-22
2022/12/01 00:18:30;;;;;;;;;;;13.40;90.90;;;;;;4591631;19;20245;-22
2022/12/01 00:20:01;;;;;;;;;;;13.40;90.80;;;;;;4591674;19;19923;-21
2022/12/01 00:25:04;;;;;;;;;;;13.40;90.90;;;;;;4591641;19;19919;-22
2022/12/01 00:26:36;;;;;;;;;;;13.40;90.90;;;;;;4590721;19;19919;-21
2022/12/01 00:35:09;;;;;;;;;;;13.40;90.90;;;;;;4590307;19;19911;-22
2022/12/01 00:36:41;;;;;;;;;;;13.40;91.00;;;;;;4591330;19;19951;-22
2022/12/01 00:38:12;;;;;;;;;;;13.40;91.00;;;;;;4591322;19;19923;-22
2022/12/01 00:39:43;;;;;;;;;;;13.40;91.00;;;;;;4590455;19;19915;-21
2022/12/01 00:41:14;;;;;;;;;;;13.40;91.10;;;;;;4590617;19;19922;-21
2022/12/01 00:49:47;;;;;;;;;;;13.40;90.90;;;;;;4590616;19;19927;-24
2022/12/01 00:51:18;;;;;;;;;;;13.40;90.90;;;;;;4590633;19;19913;-21
2022/12/01 00:59:51;;;;;;;;;;;13.40;90.90;;;;;;4590222;19;19911;-22
2022/12/01 01:01:23;;;;;;;;;;;13.40;91.00;;;;;;4590675;19;20273;-22
2022/12/01 01:04:39;;;;;;;;;;;13.40;91.10;;;;;;4590663;19;19919;-23
2022/12/01 01:06:10;;;;;;;;;;;13.40;91.10;;;;;;4590611;19;20318;-21
2022/12/01 01:07:42;;;;;;;;;;;13.40;91.10;;;;;;4587198;19;19998;-21
2022/12/01 01:09:13;;;;;;;;;;;13.40;91.10;;;;;;4590084;19;19923;-21
2022/12/01 01:10:45;;;;;;;;;;;13.40;91.00;;;;;;4590869;19;19926;-21
2022/12/01 01:15:55;;;;;;;;;;;13.40;91.10;;;;;;4590138;19;20238;-22
2022/12/01 01:20:58;;;;;;;;;;;13.40;91.10;;;;;;4590258;19;19934;-22
2022/12/01 01:29:32;;;;;;;;;;;13.40;91.10;;;;;;4589811;19;19923;-22
2022/12/01 01:38:00;;;;;;;;;;;13.40;91.10;;;;;;4588826;19;20011;-21
2022/12/01 01:39:31;;;;;;;;;;;13.40;91.20;;;;;;4590046;19;19918;-22
2022/12/01 01:41:02;;;;;;;;;;;13.40;91.20;;;;;;4589990;19;19953;-22
2022/12/01 01:42:34;;;;;;;;;;;13.40;91.30;;;;;;4590246;19;19930;-21
2022/12/01 01:44:24;;;;;;;;;;;13.40;91.30;;;;;;4590083;19;19919;-21
2022/12/01 01:45:55;;;;;;;;;;;13.40;91.30;;;;;;4590050;19;20381;-22
2022/12/01 01:50:57;;;;;;;;;;;13.40;91.10;;;;;;4589807;19;20329;-21
2022/12/01 01:54:16;;;;;;;;;;;13.30;91.10;;;;;;4588547;19;19986;-21
2022/12/01 01:55:48;;;;;;;;;;;13.40;91.20;;;;;;4588972;19;19915;-21
2022/12/01 02:00:51;;;;;;;;;;;13.40;91.30;;;;;;4589523;19;19918;-24
2022/12/01 02:04:09;;;;;;;;;;;13.40;91.30;;;;;;4593733;19;19923;-23
2022/12/01 02:05:40;;;;;;;;;;;13.40;91.30;;;;;;4594431;19;20374;-21
2022/12/01 02:16:05;;;;;;;;;;;13.40;91.40;;;;;;4594097;19;20008;-21
2022/12/01 02:21:14;;;;;;;;;;;13.40;91.30;;;;;;4593813;19;19918;-21
2022/12/01 02:22:51;;;;;;;;;;;13.40;91.40;;;;;;4592753;19;19923;-21
2022/12/01 02:24:25;;;;;;;;;;;13.40;91.60;;;;;;4593509;19;19971;-21
2022/12/01 02:32:58;;;;;;;;;;;13.30;91.50;;;;;;4593230;19;19935;-21
2022/12/01 02:34:39;;;;;;;;;;;13.40;91.50;;;;;;4593684;19;19921;-21
2022/12/01 02:36:12;;;;;;;;;;;13.30;91.40;;;;;;4593779;19;19922;-21
2022/12/01 02:43:03;;;;;;;;;;;13.30;91.30;;;;;;4593292;19;19926;-21
2022/12/01 02:44:36;;;;;;;;;;;13.30;91.30;;;;;;4592530;19;19926;-22
2022/12/01 02:46:11;;;;;;;;;;;13.30;91.30;;;;;;4592342;19;19915;-21
2022/12/01 02:58:17;;;;;;;;;;;13.30;91.40;;;;;;4593378;19;19927;-21
2022/12/01 02:59:49;;;;;;;;;;;13.30;91.40;;;;;;4593629;19;19954;-22
2022/12/01 03:04:51;;;;;;;;;;;13.30;91.30;;;;;;4592756;19;19917;-22
2022/12/01 03:06:22;;;;;;;;;;;13.30;91.30;;;;;;4592790;19;19919;-22
2022/12/01 03:07:56;;;;;;;;;;;13.30;91.30;;;;;;4591790;19;19918;-21
2022/12/01 03:09:45;;;;;;;;;;;13.30;91.30;;;;;;4592235;19;20241;-23
2022/12/01 03:13:22;;;;;;;;;;;13.40;91.40;;;;;;4592527;19;19919;-22
2022/12/01 03:15:00;;;;;;;;;;;13.30;91.20;;;;;;4591620;19;20275;-22
2022/12/01 03:16:40;;;;;;;;;;;13.30;91.20;;;;;;4592745;19;19919;-22
2022/12/01 03:21:51;;;;;;;;;;;13.30;91.30;;;;;;4592412;19;19914;-22
2022/12/01 03:25:08;;;;;;;;;;;13.30;91.30;;;;;;4592400;19;20250;-25
2022/12/01 03:26:39;;;;;;;;;;;13.30;91.30;;;;;;4591267;19;19926;-21
2022/12/01 03:28:11;;;;;;;;;;;13.30;91.30;;;;;;4592324;19;19915;-22
2022/12/01 03:29:42;;;;;;;;;;;13.30;91.30;;;;;;4592674;19;19918;-22
2022/12/01 03:34:46;;;;;;;;;;;13.30;91.30;;;;;;4591483;19;19919;-21
2022/12/01 03:36:19;;;;;;;;;;;13.30;91.20;;;;;;4591111;19;19952;-21
2022/12/01 03:37:55;;;;;;;;;;;13.30;91.30;;;;;;4590235;19;19915;-21
2022/12/01 03:39:27;;;;;;;;;;;13.30;91.20;;;;;;4591305;19;20348;-22
2022/12/01 03:46:17;;;;;;;;;;;13.30;91.20;;;;;;4592000;19;19927;-22
2022/12/01 03:47:50;;;;;;;;;;;13.30;91.10;;;;;;4589758;19;19915;-21
2022/12/01 03:49:22;;;;;;;;;;;13.30;91.10;;;;;;4591377;19;20294;-23
2022/12/01 03:50:56;;;;;;;;;;;13.30;91.10;;;;;;4591225;19;19930;-21
2022/12/01 03:52:27;;;;;;;;;;;13.30;91.00;;;;;;4591832;19;20266;-24
2022/12/01 03:57:30;;;;;;;;;;;13.30;91.10;;;;;;4592038;19;19914;-22
2022/12/01 03:59:02;;;;;;;;;;;13.30;91.30;;;;;;4590585;19;19927;-21
2022/12/01 04:00:32;;;;;;;;;;;13.30;91.40;;;;;;4590682;19;20308;-21
2022/12/01 04:02:06;;;;;;;;;;;13.30;91.60;;;;;;4591053;19;19915;-23
2022/12/01 04:07:12;;;;;;;;;;;13.40;91.90;;;;;;4591070;19;19953;-21
2022/12/01 04:13:59;;;;;;;;;;;13.30;92.00;;;;;;4591687;19;20342;-21
2022/12/01 04:15:30;;;;;;;;;;;13.30;92.00;;;;;;4591710;19;19918;-22
2022/12/01 04:22:18;;;;;;;;;;;13.30;92.10;;;;;;4591822;19;19930;-21
2022/12/01 04:32:38;;;;;;;;;;;13.30;92.10;;;;;;4591033;19;19915;-21
2022/12/01 04:37:40;;;;;;;;;;;13.30;92.10;;;;;;4590062;19;19978;-22
2022/12/01 04:44:20;;;;;;;;;;;13.40;92.10;;;;;;4591055;19;19911;-22
2022/12/01 04:49:22;;;;;;;;;;;13.60;92.00;;;;;;4590710;19;19966;-22
2022/12/01 04:50:53;;;;;;;;;;;13.70;91.90;;;;;;4590845;19;20417;-22
2022/12/01 04:52:25;;;;;;;;;;;13.80;91.90;;;;;;4591290;19;19914;-22
2022/12/01 05:02:44;;;;;;;;;;;13.90;91.70;;;;;;4590378;19;19974;-22
2022/12/01 05:04:16;;;;;;;;;;;13.90;91.70;;;;;;4590564;19;19970;-24
2022/12/01 05:05:48;;;;;;;;;;;13.90;91.70;;;;;;4589455;19;19919;-22
2022/12/01 05:10:53;;;;;;;;;;;13.90;91.70;;;;;;4590075;19;19918;-22
2022/12/01 05:12:25;;;;;;;;;;;13.90;91.70;;;;;;4589514;19;19930;-23
2022/12/01 05:17:30;;;;;;;;;;;14.00;91.70;;;;;;4589748;19;19922;-22
2022/12/01 05:20:57;;;;;;;;;;;13.90;91.80;;;;;;4590172;19;19911;-22
2022/12/01 05:22:28;;;;;;;;;;;13.80;91.70;;;;;;4589207;19;19922;-23
2022/12/01 05:24:00;;;;;;;;;;;13.80;91.80;;;;;;4590673;19;19923;-22
2022/12/01 05:27:17;;;;;;;;;;;13.80;91.80;;;;;;4591921;19;19975;-22
2022/12/01 05:28:48;;;;;;;;;;;13.70;91.80;;;;;;4590413;19;20074;-22
2022/12/01 05:30:19;;;;;;;;;;;13.70;91.90;;;;;;4589904;19;19915;-22
2022/12/01 05:31:50;;;;;;;;;;;13.70;91.80;;;;;;4589859;19;19919;-24
2022/12/01 05:33:22;;;;;;;;;;;13.70;91.90;;;;;;4590737;19;20468;-24
2022/12/01 05:34:53;;;;;;;;;;;13.70;91.90;;;;;;4589673;19;19919;-22
2022/12/01 05:36:24;;;;;;;;;;;13.70;91.90;;;;;;4589775;19;20260;-23
2022/12/01 05:37:55;;;;;;;;;;;13.70;92.00;;;;;;4588243;19;19914;-22
2022/12/01 05:39:26;;;;;;;;;;;13.70;92.20;;;;;;4590307;19;19921;-23
2022/12/01 05:40:57;;;;;;;;;;;13.60;91.90;;;;;;4589774;19;19924;-22
2022/12/01 05:42:28;;;;;;;;;;;13.70;91.90;;;;;;4589759;19;19923;-22
2022/12/01 05:44:00;;;;;;;;;;;13.60;92.00;;;;;;4590114;19;19922;-24
2022/12/01 05:45:30;;;;;;;;;;;13.60;92.10;;;;;;4590605;19;19919;-22
2022/12/01 05:47:02;;;;;;;;;;;13.60;91.90;;;;;;4589138;19;19990;-22
2022/12/01 05:48:33;;;;;;;;;;;13.60;91.90;;;;;;4589434;19;19918;-23
2022/12/01 05:50:05;;;;;;;;;;;13.60;91.90;;;;;;4589802;19;19919;-23
2022/12/01 05:51:36;;;;;;;;;;;13.60;91.90;;;;;;4589494;19;20271;-22
2022/12/01 05:53:07;;;;;;;;;;;13.60;91.90;;;;;;4589381;19;19921;-23
2022/12/01 05:54:37;;;;;;;;;;;13.60;91.90;;;;;;4589651;19;19939;-23
2022/12/01 05:56:09;;;;;;;;;;;13.60;92.00;;;;;;4590073;19;19915;-23
2022/12/01 05:57:40;;;;;;;;;;;13.60;92.00;;;;;;4589516;19;19917;-23
2022/12/01 05:59:11;;;;;;;;;;;13.60;92.00;;;;;;4589400;19;19923;-22
2022/12/01 06:00:43;;;;;;;;;;;13.60;92.00;;;;;;4589282;19;19939;-21
2022/12/01 06:02:14;;;;;;;;;;;13.60;92.00;;;;;;4590058;19;19911;-20
2022/12/01 06:03:45;;;;;;;;;;;13.60;91.90;;;;;;4589479;19;19951;-23
2022/12/01 06:05:17;;;;;;;;;;;13.60;92.00;;;;;;4589638;19;20234;-20
2022/12/01 06:06:48;;;;;;;;;;;13.60;91.90;;;;;;4588157;19;19915;-20
2022/12/01 06:08:18;;;;;;;;;;;13.60;91.90;;;;;;4589077;19;20319;-20
2022/12/01 06:09:50;;;;;;;;;;;13.60;91.90;;;;;;4589324;19;20279;-20
2022/12/01 06:11:21;;;;;;;;;;;13.60;91.90;;;;;;4591295;19;19982;-21
2022/12/01 06:12:52;;;;;;;;;;;13.60;91.90;;;;;;4589962;19;19910;-20
2022/12/01 06:14:25;;;;;;;;;;;13.60;91.90;;;;;;4588889;19;19919;-20
2022/12/01 06:15:56;;;;;;;;;;;13.60;91.90;;;;;;4589368;19;19922;-20
2022/12/01 06:17:28;;;;;;;;;;;13.60;91.90;;;;;;4589474;19;20326;-20
2022/12/01 06:18:59;;;;;;;;;;;13.60;91.90;;;;;;4588357;19;19994;-20
2022/12/01 06:20:30;;;;;;;;;;;13.60;91.90;;;;;;4588652;19;19915;-21
2022/12/01 06:22:01;;;;;;;;;;;13.60;92.00;;;;;;4589194;19;19922;-21
2022/12/01 06:23:33;;;;;;;;;;;13.50;91.90;;;;;;4589867;19;20329;-21
2022/12/01 06:25:04;;;;;;;;;;;13.50;91.90;;;;;;4587832;19;19914;-21
2022/12/01 06:30:06;;;;;;;;;;;13.60;91.90;;;;;;4588736;19;19944;-21
2022/12/01 06:31:39;;;;;;;;;;;13.50;91.80;;;;;;4588952;19;19943;-22
2022/12/01 06:33:11;;;;;;;;;;;13.50;91.90;;;;;;4587941;19;19923;-22
2022/12/01 06:34:42;;;;;;;;;;;13.60;91.90;;;;;;4588901;19;19919;-23
2022/12/01 06:38:00;;;;;;;;;;;13.50;91.90;;;;;;4587229;19;19918;-22
2022/12/01 06:41:16;;;;;;;;;;;13.60;92.10;;;;;;4589178;19;20292;-21
2022/12/01 06:42:47;;;;;;;;;;;13.60;92.00;;;;;;4588261;19;19934;-23
2022/12/01 06:44:18;;;;;;;;;;;13.60;91.70;;;;;;4589334;19;19919;-23
2022/12/01 06:45:50;;;;;;;;;;;13.60;91.70;;;;;;4587557;19;19984;-22
2022/12/01 06:47:21;;;;;;;;;;;13.60;91.70;;;;;;4587617;19;19915;-23
2022/12/01 06:48:52;;;;;;;;;;;13.70;91.70;;;;;;4588631;19;19922;-22
2022/12/01 06:50:23;;;;;;;;;;;13.60;91.60;;;;;;4590938;19;19923;-22
2022/12/01 06:51:55;;;;;;;;;;;13.60;91.70;;;;;;4592811;19;19918;-23
2022/12/01 06:53:27;;;;;;;;;;;13.70;91.70;;;;;;4592561;19;19914;-21
2022/12/01 06:54:59;;;;;;;;;;;13.60;91.60;;;;;;4592970;19;20000;-21
2022/12/01 06:56:30;;;;;;;;;;;13.60;91.60;;;;;;4593261;19;19918;-22
2022/12/01 06:58:02;;;;;;;;;;;13.60;91.70;;;;;;4592944;19;19932;-21
2022/12/01 06:59:33;;;;;;;;;;;13.60;91.70;;;;;;4592813;19;19919;-22
2022/12/01 07:01:08;;;;;;;;;;;13.60;91.70;;;;;;4592848;19;19943;-21
2022/12/01 07:02:39;;;;;;;;;;;13.60;91.70;;;;;;4592082;19;19919;-22
2022/12/01 07:04:10;;;;;;;;;;;13.60;91.80;;;;;;4592563;19;19939;-22
2022/12/01 07:05:43;;;;;;;;;;;13.60;91.80;;;;;;4592793;19;19922;-22
2022/12/01 07:07:14;;;;;;;;;;;13.60;91.80;;;;;;4591514;19;19919;-22
2022/12/01 07:08:45;;;;;;;;;;;13.60;91.80;;;;;;4592384;19;19922;-22
2022/12/01 07:10:16;;;;;;;;;;;13.60;91.80;;;;;;4592644;19;19930;-22
2022/12/01 07:11:47;;;;;;;;;;;13.60;91.80;;;;;;4592823;19;20260;-21
2022/12/01 07:13:18;;;;;;;;;;;13.60;91.80;;;;;;4593340;19;19938;-22
2022/12/01 07:14:50;;;;;;;;;;;13.60;91.80;;;;;;4594462;19;20338;-22
2022/12/01 07:16:23;;;;;;;;;;;13.60;91.80;;;;;;4595037;19;19915;-22
2022/12/01 07:17:54;;;;;;;;;;;13.60;91.80;;;;;;4594616;19;19986;-21
2022/12/01 07:19:26;;;;;;;;;;;13.60;91.80;;;;;;4594603;19;19974;-22
2022/12/01 07:21:00;;;;;;;;;;;13.60;91.80;;;;;;4592488;19;19919;-21
2022/12/01 07:22:31;;;;;;;;;;;13.60;91.90;;;;;;4593289;19;19927;-22
2022/12/01 07:24:03;;;;;;;;;;;13.60;91.80;;;;;;4592461;19;19923;-22
2022/12/01 07:25:33;;;;;;;;;;;13.60;91.90;;;;;;4592287;19;19954;-25
2022/12/01 07:27:04;;;;;;;;;;;13.60;91.90;;;;;;4591805;19;19915;-25
2022/12/01 07:28:36;;;;;;;;;;;13.60;91.90;;;;;;4592595;19;20301;-22
2022/12/01 07:30:07;;;;;;;;;;;13.60;91.90;;;;;;4592553;19;20257;-23
2022/12/01 07:31:38;;;;;;;;;;;13.60;91.90;;;;;;4592265;19;20007;-22
2022/12/01 07:33:09;;;;;;;;;;;13.60;91.90;;;;;;4592411;19;19919;-22
2022/12/01 07:34:40;;;;;;;;;;;13.60;91.90;;;;;;4591133;19;19935;-22
2022/12/01 07:36:11;;;;;;;;;;;13.60;91.90;;;;;;4590552;19;19919;-22
2022/12/01 07:37:42;;;;;;;;;;;13.70;91.80;;;;;;4590999;19;19919;-22
2022/12/01 07:39:14;;;;;;;;;;;13.70;92.00;;;;;;4592229;19;19915;-21
2022/12/01 07:40:44;;;;;;;;;;;13.60;91.90;;;;;;4592165;19;20352;-22
2022/12/01 07:47:02;;;;;;;;;;;13.50;92.00;;;;;;4594005;19;19911;-22
2022/12/01 07:48:34;;;;;;;;;;;13.50;92.00;;;;;;4592298;19;20227;-23
2022/12/01 07:50:05;;;;;;;;;;;13.50;91.90;;;;;;4592025;19;19911;-21
2022/12/01 07:53:22;;;;;;;;;;;13.50;92.00;;;;;;4591043;19;19918;-21
2022/12/01 07:54:53;;;;;;;;;;;13.50;92.00;;;;;;4590881;19;19919;-22
2022/12/01 07:58:10;;;;;;;;;;;13.50;92.00;;;;;;4591831;19;19929;-21
2022/12/01 08:01:27;;;;;;;;;;;13.50;92.00;;;;;;4591332;19;20008;-21
2022/12/01 08:02:58;;;;;;;;;;;13.40;92.00;;;;;;4591573;19;19919;-21
2022/12/01 08:04:29;;;;;;;;;;;13.50;91.90;;;;;;4591733;19;20366;-23
2022/12/01 08:07:46;;;;;;;;;;;13.40;92.00;;;;;;4588800;19;19918;-22
2022/12/01 08:09:17;;;;;;;;;;;13.50;92.10;;;;;;4592893;19;19918;-21
2022/12/01 08:10:47;;;;;;;;;;;13.50;92.10;;;;;;4592588;19;19929;-21
2022/12/01 08:12:18;;;;;;;;;;;13.40;92.10;;;;;;4591527;19;19975;-24
2022/12/01 08:13:50;;;;;;;;;;;13.40;92.00;;;;;;4594147;19;20249;-22
2022/12/01 08:15:21;;;;;;;;;;;13.40;92.10;;;;;;4593842;19;19922;-21
2022/12/01 08:16:52;;;;;;;;;;;13.40;92.10;;;;;;4590295;19;20327;-22
2022/12/01 08:18:23;;;;;;;;;;;13.40;92.10;;;;;;4590940;19;19935;-21
2022/12/01 08:19:54;;;;;;;;;;;13.40;92.10;;;;;;4591908;19;20363;-22
2022/12/01 08:21:25;;;;;;;;;;;13.40;92.10;;;;;;4591274;19;19921;-22
2022/12/01 08:22:59;;;;;;;;;;;13.40;92.10;;;;;;4591469;19;19937;-22
2022/12/01 08:24:30;;;;;;;;;;;13.40;92.10;;;;;;4591400;19;19930;-22
2022/12/01 08:26:01;;;;;;;;;;;13.40;92.20;;;;;;4592959;19;19919;-21
2022/12/01 08:27:32;;;;;;;;;;;13.40;92.10;;;;;;4593126;19;19980;-22
2022/12/01 08:29:03;;;;;;;;;;;13.40;92.20;;;;;;4592350;19;20329;-22
2022/12/01 08:30:34;;;;;;;;;;;13.40;92.20;;;;;;4594215;19;20313;-21
2022/12/01 08:32:07;;;;;;;;;;;13.40;92.20;;;;;;4590016;19;19915;-22
2022/12/01 08:33:40;;;;;;;;;;;13.40;92.20;;;;;;4590705;19;19914;-21
2022/12/01 08:35:12;;;;;;;;;;;13.40;92.20;;;;;;4591183;19;19930;-22
2022/12/01 08:36:43;;;;;;;;;;;13.40;92.30;;;;;;4590340;19;19929;-21
2022/12/01 08:38:14;;;;;;;;;;;13.40;92.20;;;;;;4589657;19;19919;-24
2022/12/01 08:39:46;;;;;;;;;;;13.50;92.20;;;;;;4589799;19;20337;-21
2022/12/01 08:41:17;;;;;;;;;;;13.50;92.20;;;;;;4590322;19;19922;-21
2022/12/01 08:42:50;;;;;;;;;;;13.60;92.10;;;;;;4590629;19;20004;-22
2022/12/01 08:44:22;;;;;;;;;;;13.70;92.00;;;;;;4589401;19;19914;-21
2022/12/01 08:45:56;;;;;;;;;;;13.70;92.10;;;;;;4590580;19;19930;-22
2022/12/01 08:47:27;;;;;;;;;;;13.70;92.10;;;;;;4590356;19;20318;-21
2022/12/01 08:48:58;;;;;;;;;;;13.70;92.00;;;;;;4590417;19;19910;-21
2022/12/01 08:50:29;;;;;;;;;;;13.80;92.00;;;;;;4591467;19;19922;-23
2022/12/01 08:52:01;;;;;;;;;;;13.80;92.00;;;;;;4591809;19;19926;-23
2022/12/01 08:53:33;;;;;;;;;;;13.70;92.00;;;;;;4592253;19;20269;-21
2022/12/01 08:55:04;;;;;;;;;;;13.70;92.10;;;;;;4593267;19;20246;-22
2022/12/01 08:56:36;;;;;;;;;;;13.70;92.10;;;;;;4592529;19;20008;-21
2022/12/01 08:58:08;;;;;;;;;;;13.70;92.00;;;;;;4590278;19;19934;-22
2022/12/01 08:59:39;;;;;;;;;;;13.70;92.10;;;;;;4592249;19;19944;-25
2022/12/01 09:01:12;;;;;;;;;;;13.70;92.10;;;;;;4589948;19;20330;-22
2022/12/01 09:02:44;;;;;;;;;;;13.70;92.20;;;;;;4589300;19;19919;-21
2022/12/01 09:04:16;;;;;;;;;;;13.70;92.20;;;;;;4590590;19;19921;-22
2022/12/01 09:05:47;;;;;;;;;;;13.70;92.20;;;;;;4590723;19;19949;-22
2022/12/01 09:07:19;;;;;;;;;;;13.70;92.30;;;;;;4589863;19;19923;-25
2022/12/01 09:08:51;;;;;;;;;;;13.70;92.40;;;;;;4590587;19;19911;-23
2022/12/01 09:10:22;;;;;;;;;;;13.70;92.50;;;;;;4590448;19;19935;-23
2022/12/01 09:13:38;;;;;;;;;;;13.70;92.50;;;;;;4588534;19;19918;-22
2022/12/01 09:20:18;;;;;;;;;;;13.60;93.00;;;;;;4590265;19;20309;-21
2022/12/01 09:23:34;;;;;;;;;;;13.60;92.80;;;;;;4589536;19;19927;-21
2022/12/01 09:26:55;;;;;;;;;;;13.60;93.20;;;;;;4590113;19;19932;-21
2022/12/01 09:30:16;;;;;;;;;;;13.60;93.10;;;;;;4589128;19;19915;-21
2022/12/01 09:31:47;;;;;;;;;;;13.60;93.10;;;;;;4589977;19;19938;-22
2022/12/01 09:33:18;;;;;;;;;;;13.60;93.10;;;;;;4590139;19;19915;-21
2022/12/01 09:34:49;;;;;;;;;;;13.60;93.10;;;;;;4589106;19;19915;-22
2022/12/01 09:36:20;;;;;;;;;;;13.60;93.20;;;;;;4589655;19;19955;-23
2022/12/01 09:37:52;;;;;;;;;;;13.60;93.20;;;;;;4589208;19;19982;-22
2022/12/01 09:39:24;;;;;;;;;;;13.60;93.30;;;;;;4589163;19;19974;-21
2022/12/01 09:40:55;;;;;;;;;;;13.60;93.40;;;;;;4588726;19;19930;-21
2022/12/01 09:42:26;;;;;;;;;;;13.60;93.30;;;;;;4588637;19;19915;-21
2022/12/01 09:44:04;;;;;;;;;;;13.60;93.40;;;;;;4589605;19;20268;-22
2022/12/01 09:45:36;;;;;;;;;;;13.60;93.50;;;;;;4589146;19;19911;-22
2022/12/01 09:47:09;;;;;;;;;;;13.60;93.50;;;;;;4588781;19;19922;-21
2022/12/01 09:48:42;;;;;;;;;;;13.60;93.80;;;;;;4589564;19;19911;-21
2022/12/01 09:50:18;;;;;;;;;;;13.60;93.50;;;;;;4588814;19;19923;-23
2022/12/01 09:51:49;;;;;;;;;;;13.60;93.50;;;;;;4588836;19;20337;-21
2022/12/01 09:53:21;;;;;;;;;;;13.60;93.50;;;;;;4588469;19;19947;-22
2022/12/01 09:54:54;;;;;;;;;;;13.60;93.50;;;;;;4588391;19;19919;-22
2022/12/01 09:56:26;;;;;;;;;;;13.60;93.40;;;;;;4588747;19;19931;-22
2022/12/01 09:57:58;;;;;;;;;;;13.60;93.50;;;;;;4589294;19;19933;-21
2022/12/01 09:59:34;;;;;;;;;;;13.60;93.50;;;;;;4589726;19;19922;-22
2022/12/01 10:01:08;;;;;;;;;;;13.60;93.50;;;;;;4588425;19;19915;-21
2022/12/01 10:02:43;;;;;;;;;;;13.60;93.40;;;;;;4588155;19;20330;-21
2022/12/01 10:04:16;;;;;;;;;;;13.60;93.40;;;;;;4588944;19;20269;-24
2022/12/01 10:05:49;;;;;;;;;;;13.60;93.40;;;;;;4588990;19;20333;-22
2022/12/01 10:07:23;;;;;;;;;;;13.60;93.40;;;;;;4587653;19;20003;-22
2022/12/01 10:09:13;;;;;;;;;;;13.60;93.40;;;;;;4589082;19;19911;-23
2022/12/01 10:10:46;;;;;;;;;;;13.60;93.50;;;;;;4589217;19;19998;-22
2022/12/01 10:12:17;;;;;;;;;;;13.60;93.40;;;;;;4589718;19;19926;-24
2022/12/01 10:13:50;;;;;;;;;;;13.60;93.40;;;;;;4588890;19;19910;-23
2022/12/01 10:15:21;;;;;;;;;;;13.60;93.40;;;;;;4588224;19;19943;-23
2022/12/01 10:16:56;;;;;;;;;;;13.60;93.30;;;;;;4588655;19;19940;-22
2022/12/01 10:18:31;;;;;;;;;;;13.60;93.40;;;;;;4589379;19;19974;-22
2022/12/01 10:20:15;;;;;;;;;;;13.60;93.40;;;;;;4589044;19;20643;-22
2022/12/01 10:21:46;;;;;;;;;;;13.60;93.30;;;;;;4589233;19;19939;-23
2022/12/01 10:23:17;;;;;;;;;;;13.50;93.20;;;;;;4589170;19;19946;-22
2022/12/01 10:25:06;;;;;;;;;;;13.50;93.20;;;;;;4589522;19;19919;-22
2022/12/01 10:26:53;;;;;;;;;;;13.50;93.20;;;;;;4592658;19;19919;-22
2022/12/01 10:28:52;;;;;;;;;;;13.60;93.40;;;;;;4592211;19;19979;-22
2022/12/01 10:30:26;;;;;;;;;;;13.60;93.40;;;;;;4593760;19;20333;-23
2022/12/01 10:32:10;;;;;;;;;;;13.60;93.40;;;;;;4593559;19;19964;-23
2022/12/01 10:33:45;;;;;;;;;;;13.60;93.30;;;;;;4592523;19;19923;-23
2022/12/01 10:35:17;;;;;;;;;;;13.60;93.40;;;;;;4592801;19;19923;-23
2022/12/01 10:36:48;;;;;;;;;;;13.60;93.30;;;;;;4593011;19;19930;-22
2022/12/01 10:38:28;;;;;;;;;;;13.60;93.30;;;;;;4591363;19;19926;-24
2022/12/01 10:39:59;;;;;;;;;;;13.50;93.30;;;;;;4593366;19;19926;-27
2022/12/01 10:41:30;;;;;;;;;;;13.60;93.30;;;;;;4593877;19;19983;-22
2022/12/01 10:43:01;;;;;;;;;;;13.60;93.30;;;;;;4593047;19;20300;-23
2022/12/01 10:44:33;;;;;;;;;;;13.60;93.40;;;;;;4591731;19;20257;-25
2022/12/01 10:46:24;;;;;;;;;;;13.60;93.40;;;;;;4593009;19;19944;-21
2022/12/01 10:48:06;;;;;;;;;;;13.60;93.40;;;;;;4592377;19;19929;-21
2022/12/01 10:49:38;;;;;;;;;;;13.60;93.40;;;;;;4592151;19;20337;-21
2022/12/01 10:51:15;;;;;;;;;;;13.60;93.40;;;;;;4591973;19;19926;-24
2022/12/01 10:52:47;;;;;;;;;;;13.60;93.50;;;;;;4591855;19;19988;-23
2022/12/01 10:54:19;;;;;;;;;;;13.60;93.50;;;;;;4590682;19;20333;-22
2022/12/01 10:55:53;;;;;;;;;;;13.60;93.40;;;;;;4593138;19;19914;-23
2022/12/01 10:57:25;;;;;;;;;;;13.60;93.50;;;;;;4591644;19;19923;-22
2022/12/01 10:58:57;;;;;;;;;;;13.60;93.50;;;;;;4591583;19;20306;-22
2022/12/01 11:00:31;;;;;;;;;;;13.60;93.50;;;;;;4592442;19;19926;-23
2022/12/01 11:02:03;;;;;;;;;;;13.60;93.40;;;;;;4591434;19;19952;-23
2022/12/01 11:03:34;;;;;;;;;;;13.60;93.50;;;;;;4591660;19;19974;-22
2022/12/01 11:05:06;;;;;;;;;;;13.50;93.30;;;;;;4591459;19;20341;-22
2022/12/01 11:06:37;;;;;;;;;;;13.60;93.30;;;;;;4592451;19;20332;-23
2022/12/01 11:08:19;;;;;;;;;;;13.60;93.40;;;;;;4590021;19;19915;-21
2022/12/01 11:09:57;;;;;;;;;;;13.60;93.30;;;;;;4592382;19;19926;-24
2022/12/01 11:11:32;;;;;;;;;;;13.60;93.20;;;;;;4592797;19;19966;-22
2022/12/01 11:13:03;;;;;;;;;;;13.60;93.20;;;;;;4591783;19;19929;-22
2022/12/01 11:14:48;;;;;;;;;;;13.60;93.20;;;;;;4592301;19;19931;-22
2022/12/01 11:16:39;;;;;;;;;;;13.60;93.10;;;;;;4591566;19;19918;-23
2022/12/01 11:18:19;;;;;;;;;;;13.50;93.10;;;;;;4591253;19;19932;-22
2022/12/01 11:21:49;;;;;;;;;;;13.50;93.10;;;;;;4593553;19;19926;-23
2022/12/01 11:23:28;;;;;;;;;;;13.50;93.10;;;;;;4592824;19;19921;-22
2022/12/01 11:25:08;;;;;;;;;;;13.50;93.00;;;;;;4591356;19;19929;-22
2022/12/01 11:26:39;;;;;;;;;;;13.50;92.90;;;;;;4591070;19;19973;-22
2022/12/01 11:28:14;;;;;;;;;;;13.50;92.80;;;;;;4590682;19;19930;-23
2022/12/01 11:29:46;;;;;;;;;;;13.50;92.80;;;;;;4593471;19;19919;-22
2022/12/01 11:31:18;;;;;;;;;;;13.50;92.70;;;;;;4591066;19;20429;-24
2022/12/01 11:32:54;;;;;;;;;;;13.50;92.60;;;;;;4591629;19;19915;-22
2022/12/01 11:34:28;;;;;;;;;;;13.50;92.70;;;;;;4591331;19;19922;-22
2022/12/01 11:36:00;;;;;;;;;;;13.50;92.60;;;;;;4591043;19;19918;-23
2022/12/01 11:37:35;;;;;;;;;;;13.50;92.70;;;;;;4590998;19;19922;-23
2022/12/01 11:39:06;;;;;;;;;;;13.50;92.80;;;;;;4589514;19;19918;-22
2022/12/01 11:40:45;;;;;;;;;;;13.50;92.70;;;;;;4591048;19;19915;-22
2022/12/01 11:42:16;;;;;;;;;;;13.50;92.60;;;;;;4592059;19;19952;-21
2022/12/01 11:43:47;;;;;;;;;;;13.50;92.90;;;;;;4592106;19;19919;-21
2022/12/01 11:45:20;;;;;;;;;;;13.50;92.70;;;;;;4592103;19;20282;-23
2022/12/01 11:46:51;;;;;;;;;;;13.50;92.70;;;;;;4591830;19;19915;-22
2022/12/01 11:48:26;;;;;;;;;;;13.50;92.60;;;;;;4589869;19;19919;-22
2022/12/01 11:50:22;;;;;;;;;;;13.50;92.50;;;;;;4592339;19;19943;-23
2022/12/01 11:51:54;;;;;;;;;;;13.50;92.50;;;;;;4591840;19;19919;-22
2022/12/01 11:53:29;;;;;;;;;;;13.50;92.50;;;;;;4590675;19;19978;-24
2022/12/01 11:55:09;;;;;;;;;;;13.50;92.60;;;;;;4591246;19;19935;-23
2022/12/01 11:56:42;;;;;;;;;;;13.50;92.50;;;;;;4591922;19;20390;-22
2022/12/01 11:58:13;;;;;;;;;;;13.50;92.40;;;;;;4590323;19;19931;-23
2022/12/01 11:59:46;;;;;;;;;;;13.50;92.30;;;;;;4591363;19;20298;-22
2022/12/01 12:01:27;;;;;;;;;;;13.50;92.10;;;;;;4590683;19;19919;-22
2022/12/01 12:03:07;;;;;;;;;;;13.50;92.00;;;;;;4592054;19;20386;-23
2022/12/01 12:04:38;;;;;;;;;;;13.50;92.10;;;;;;4592245;19;19919;-22
2022/12/01 12:06:23;;;;;;;;;;;13.50;92.10;;;;;;4591908;19;19923;-22
2022/12/01 12:08:00;;;;;;;;;;;13.50;92.10;;;;;;4589707;19;19915;-24
2022/12/01 12:09:45;;;;;;;;;;;13.50;92.00;;;;;;4590827;19;19927;-24
2022/12/01 12:11:18;;;;;;;;;;;13.50;92.00;;;;;;4591314;19;19923;-23
2022/12/01 12:13:09;;;;;;;;;;;13.50;92.10;;;;;;4591062;19;19943;-22
2022/12/01 12:14:46;;;;;;;;;;;13.50;92.20;;;;;;4590312;19;19915;-22
2022/12/01 12:16:22;;;;;;;;;;;13.50;92.30;;;;;;4592618;19;20258;-22
2022/12/01 12:18:13;;;;;;;;;;;13.50;92.30;;;;;;4591863;19;19926;-23
2022/12/01 12:19:55;;;;;;;;;;;13.50;92.20;;;;;;4593373;19;19947;-22
2022/12/01 12:21:29;;;;;;;;;;;13.50;91.80;;;;;;4591613;19;19970;-24
2022/12/01 12:23:20;;;;;;;;;;;13.50;91.80;;;;;;4591256;19;19949;-21
2022/12/01 12:26:56;;;;;;;;;;;13.50;91.80;;;;;;4590941;19;19986;-22
2022/12/01 12:28:48;;;;;;;;;;;13.50;92.00;;;;;;4588987;19;20587;-22
2022/12/01 12:30:25;;;;;;;;;;;13.50;92.00;;;;;;4588724;19;20010;-22
2022/12/01 12:32:02;;;;;;;;;;;13.50;91.80;;;;;;4589165;19;19967;-22
2022/12/01 12:33:47;;;;;;;;;;;13.50;91.80;;;;;;4589621;19;19922;-22
2022/12/01 12:35:22;;;;;;;;;;;13.50;91.90;;;;;;4588750;19;19991;-23
2022/12/01 12:36:55;;;;;;;;;;;13.50;91.80;;;;;;4587986;19;19922;-22
2022/12/01 12:38:32;;;;;;;;;;;13.50;91.80;;;;;;4587118;19;19922;-21